createdAt,value
2022-12-23T00:01:34.190Z,29.33
2022-12-23T00:04:09.205Z,31.77
2022-12-23T00:06:43.422Z,38.57
2022-12-23T00:09:17.761Z,38.17
2022-12-23T00:12:16.891Z,43.63
2022-12-23T00:15:00.326Z,35.77
2022-12-23T00:17:31.022Z,35.93
2022-12-23T00:20:02.534Z,34.43
2022-12-23T00:22:46.962Z,37.00
2022-12-23T00:25:20.573Z,30.73
2022-12-23T00:28:01.678Z,34.60
2022-12-23T00:30:32.544Z,29.93
2022-12-23T00:33:03.790Z,31.97
2022-12-23T00:35:35.249Z,34.17
2022-12-23T00:38:06.745Z,30.13
2022-12-23T00:40:52.860Z,29.93
2022-12-23T00:43:33.285Z,30.13
2022-12-23T00:46:04.683Z,31.00
2022-12-23T00:48:48.629Z,28.67
2022-12-23T00:51:19.889Z,34.53
2022-12-23T00:53:51.360Z,39.43
2022-12-23T00:56:25.436Z,39.43
2022-12-23T00:58:56.618Z,40.27
2022-12-23T01:01:40.462Z,42.60
2022-12-23T01:04:28.368Z,39.50
2022-12-23T01:06:59.375Z,41.23
2022-12-23T01:09:30.816Z,40.00
2022-12-23T01:12:04.884Z,44.37
2022-12-23T01:14:36.216Z,39.90
2022-12-23T01:17:08.520Z,41.90
2022-12-23T01:19:40.067Z,39.73
2022-12-23T01:22:10.899Z,43.43
2022-12-23T01:24:42.014Z,44.70
2022-12-23T01:27:15.678Z,48.70
2022-12-23T01:29:46.873Z,53.30
2022-12-23T01:32:17.711Z,58.10
2022-12-23T01:34:48.044Z,56.30
2022-12-23T01:37:17.982Z,57.53
2022-12-23T01:39:48.248Z,57.20
2022-12-23T01:42:35.572Z,55.30
2022-12-23T01:45:08.599Z,54.40
2022-12-23T01:47:42.785Z,57.30
2022-12-23T01:50:18.999Z,55.23
2022-12-23T01:53:06.506Z,53.97
2022-12-23T01:55:46.908Z,52.93
2022-12-23T01:58:22.450Z,54.90
2022-12-23T02:01:05.360Z,49.13
2022-12-23T02:03:53.028Z,50.67
2022-12-23T02:06:44.305Z,47.60
2022-12-23T02:09:23.924Z,52.07
2022-12-23T02:12:29.127Z,61.03
2022-12-23T02:15:32.351Z,60.77
2022-12-23T02:18:14.582Z,63.23
2022-12-23T02:21:10.900Z,56.73
2022-12-23T02:24:03.107Z,58.60
2022-12-23T02:27:12.177Z,58.03
2022-12-23T02:30:07.139Z,53.90
2022-12-23T02:33:16.116Z,54.87
2022-12-23T02:35:55.580Z,58.20
2022-12-23T02:38:31.491Z,59.20
2022-12-23T02:41:11.064Z,61.47
2022-12-23T02:43:48.018Z,54.07
2022-12-23T02:46:26.889Z,56.50
2022-12-23T02:49:04.025Z,57.20
2022-12-23T02:51:42.752Z,54.20
2022-12-23T02:54:31.002Z,55.27
2022-12-23T02:57:03.815Z,56.53
2022-12-23T02:59:42.612Z,63.53
2022-12-23T03:02:18.427Z,49.90
2022-12-23T03:04:52.655Z,59.90
2022-12-23T03:07:26.673Z,48.07
2022-12-23T03:10:03.473Z,53.77
2022-12-23T03:12:47.136Z,56.83
2022-12-23T03:15:32.955Z,50.77
2022-12-23T03:18:12.397Z,49.60
2022-12-23T03:20:56.380Z,52.07
2022-12-23T03:23:32.598Z,58.83
2022-12-23T03:26:10.207Z,56.03
2022-12-23T03:28:45.952Z,51.47
2022-12-23T03:31:23.173Z,54.03
2022-12-23T03:33:59.211Z,55.93
2022-12-23T03:36:36.123Z,56.07
2022-12-23T03:39:10.558Z,59.27
2022-12-23T03:41:46.287Z,59.97
2022-12-23T03:44:19.687Z,59.63
2022-12-23T03:46:55.468Z,65.43
2022-12-23T03:49:30.831Z,65.43
2022-12-23T03:52:06.734Z,60.87
2022-12-23T03:54:42.543Z,64.33
2022-12-23T03:57:14.649Z,67.17
2022-12-23T03:59:50.483Z,69.43
2022-12-23T04:02:26.682Z,61.60
2022-12-23T04:05:13.327Z,60.17
2022-12-23T04:07:50.588Z,62.33
2022-12-23T04:10:23.319Z,62.80
2022-12-23T04:12:53.965Z,67.57
2022-12-23T04:15:25.545Z,60.37
2022-12-23T04:17:57.808Z,60.30
2022-12-23T04:20:28.618Z,64.97
2022-12-23T04:23:01.153Z,62.43
2022-12-23T04:25:31.519Z,62.27
2022-12-23T04:28:01.498Z,60.10
2022-12-23T04:30:34.588Z,55.43
2022-12-23T04:33:05.490Z,59.10
2022-12-23T04:35:35.881Z,67.70
2022-12-23T04:38:08.680Z,62.47
2022-12-23T04:40:38.968Z,64.57
2022-12-23T04:43:08.969Z,70.83
2022-12-23T04:45:39.320Z,72.90
2022-12-23T04:48:09.379Z,72.00
2022-12-23T04:50:39.670Z,78.57
2022-12-23T04:53:12.228Z,68.20
2022-12-23T04:55:42.497Z,77.80
2022-12-23T04:58:12.453Z,68.57
2022-12-23T05:00:42.703Z,82.43
2022-12-23T05:03:12.820Z,78.77
2022-12-23T05:05:46.119Z,88.37
2022-12-23T05:08:18.752Z,86.27
2022-12-23T05:10:49.146Z,80.77
2022-12-23T05:13:19.253Z,76.60
2022-12-23T05:15:51.620Z,75.87
2022-12-23T05:18:22.655Z,89.73
2022-12-23T05:20:53.333Z,86.10
2022-12-23T05:23:26.067Z,96.73
2022-12-23T05:25:56.939Z,83.47
2022-12-23T05:28:26.974Z,81.07
2022-12-23T05:31:01.984Z,76.93
2022-12-23T05:33:32.499Z,74.30
2022-12-23T05:36:03.637Z,79.63
2022-12-23T05:38:36.432Z,92.20
2022-12-23T05:41:07.716Z,81.67
2022-12-23T05:43:37.937Z,108.27
2022-12-23T05:46:08.780Z,83.90
2022-12-23T05:48:38.816Z,73.67
2022-12-23T05:51:09.522Z,78.27
2022-12-23T05:53:42.185Z,84.03
2022-12-23T05:56:12.489Z,75.40
2022-12-23T05:58:42.521Z,81.80
2022-12-23T06:01:13.052Z,77.57
2022-12-23T06:03:43.197Z,86.67
2022-12-23T06:06:13.771Z,73.30
2022-12-23T06:08:46.339Z,81.97
2022-12-23T06:11:16.578Z,73.30
2022-12-23T06:13:46.536Z,70.43
2022-12-23T06:16:16.922Z,65.07
2022-12-23T06:18:47.175Z,68.93
2022-12-23T06:21:17.771Z,72.63
2022-12-23T06:23:50.609Z,72.13
2022-12-23T06:26:21.167Z,62.53
2022-12-23T06:28:51.412Z,65.43
2022-12-23T06:31:22.122Z,61.53
2022-12-23T06:33:52.430Z,68.70
2022-12-23T06:36:23.188Z,70.33
2022-12-23T06:38:56.028Z,71.43
2022-12-23T06:41:26.695Z,52.50
2022-12-23T06:43:56.948Z,53.80
2022-12-23T06:46:27.698Z,62.70
2022-12-23T06:48:57.943Z,47.90
2022-12-23T06:51:28.512Z,50.07
2022-12-23T06:54:01.520Z,54.40
2022-12-23T06:56:31.801Z,52.90
2022-12-23T06:59:01.675Z,52.57
2022-12-23T07:01:32.088Z,49.60
2022-12-23T07:04:03.088Z,51.07
2022-12-23T07:06:33.330Z,61.97
2022-12-23T07:09:06.286Z,75.53
2022-12-23T07:11:36.747Z,66.77
2022-12-23T07:14:06.840Z,75.57
2022-12-23T07:16:37.171Z,84.30
2022-12-23T07:19:07.436Z,92.50
2022-12-23T07:21:38.766Z,110.60
2022-12-23T07:24:11.853Z,117.87
2022-12-23T07:26:42.091Z,106.03
2022-12-23T07:29:12.025Z,124.67
2022-12-23T07:31:42.351Z,118.37
2022-12-23T07:34:18.203Z,163.20
2022-12-23T07:36:48.632Z,143.53
2022-12-23T07:39:21.210Z,141.13
2022-12-23T07:42:08.946Z,178.37
2022-12-23T07:44:44.573Z,151.77
2022-12-23T07:47:15.600Z,191.37
2022-12-23T07:49:45.694Z,180.93
2022-12-23T07:52:17.447Z,177.33
2022-12-23T07:55:01.739Z,163.67
2022-12-23T07:57:37.826Z,171.33
2022-12-23T08:00:09.894Z,174.87
2022-12-23T08:02:40.367Z,170.57
2022-12-23T08:05:13.111Z,164.30
2022-12-23T08:07:45.038Z,197.27
2022-12-23T08:10:17.782Z,185.13
2022-12-23T08:12:49.135Z,143.60
2022-12-23T08:15:19.095Z,149.30
2022-12-23T08:17:49.505Z,133.30
2022-12-23T08:20:19.519Z,149.03
2022-12-23T08:22:49.784Z,137.60
2022-12-23T08:25:22.297Z,138.60
2022-12-23T08:27:54.025Z,138.70
2022-12-23T08:30:24.084Z,138.70
2022-12-23T08:32:54.451Z,141.03
2022-12-23T08:35:24.528Z,115.67
2022-12-23T08:37:54.819Z,112.40
2022-12-23T08:40:27.375Z,122.83
2022-12-23T08:42:57.729Z,145.20
2022-12-23T08:45:27.852Z,109.63
2022-12-23T08:47:58.426Z,105.50
2022-12-23T08:50:28.446Z,107.47
2022-12-23T08:52:59.099Z,89.77
2022-12-23T08:55:31.960Z,91.17
2022-12-23T08:58:02.610Z,80.93
2022-12-23T09:00:32.848Z,77.37
2022-12-23T09:03:03.885Z,82.57
2022-12-23T09:05:35.010Z,71.77
2022-12-23T09:08:05.616Z,56.87
2022-12-23T09:10:44.072Z,62.23
2022-12-23T09:13:26.267Z,59.50
2022-12-23T09:16:01.675Z,65.33
2022-12-23T09:18:37.509Z,60.00
2022-12-23T09:21:10.979Z,60.03
2022-12-23T09:23:41.296Z,54.50
2022-12-23T09:26:19.661Z,49.87
2022-12-23T09:28:50.002Z,51.40
2022-12-23T09:31:20.571Z,57.83
2022-12-23T09:33:51.881Z,51.43
2022-12-23T09:36:22.676Z,41.03
2022-12-23T09:38:57.396Z,41.67
2022-12-23T09:41:46.280Z,44.17
2022-12-23T09:44:32.376Z,44.67
2022-12-23T09:47:06.203Z,41.67
2022-12-23T09:49:40.127Z,37.97
2022-12-23T09:52:16.464Z,39.90
2022-12-23T09:54:51.513Z,76.43
2022-12-23T09:57:26.540Z,42.27
2022-12-23T10:00:06.160Z,34.87
2022-12-23T10:02:49.670Z,33.43
2022-12-23T10:05:29.954Z,34.90
2022-12-23T10:08:04.512Z,29.37
2022-12-23T10:10:41.690Z,33.70
2022-12-23T10:13:29.763Z,37.00
2022-12-23T10:16:05.565Z,38.90
2022-12-23T10:18:45.262Z,38.97
2022-12-23T10:21:25.495Z,30.80
2022-12-23T10:23:57.393Z,34.33
2022-12-23T10:26:32.689Z,32.93
2022-12-23T10:29:18.760Z,36.50
2022-12-23T10:32:03.040Z,36.77
2022-12-23T10:34:41.178Z,35.63
2022-12-23T10:37:16.957Z,37.40
2022-12-23T10:39:58.513Z,36.03
2022-12-23T10:42:36.886Z,37.80
2022-12-23T10:45:26.223Z,46.03
2022-12-23T10:48:14.140Z,31.07
2022-12-23T10:50:53.288Z,28.37
2022-12-23T10:53:34.621Z,25.97
2022-12-23T10:56:09.616Z,23.47
2022-12-23T10:58:43.556Z,23.33
2022-12-23T11:01:26.467Z,23.50
2022-12-23T11:04:05.754Z,22.20
2022-12-23T11:06:40.347Z,25.73
2022-12-23T11:09:18.150Z,19.37
2022-12-23T11:12:03.341Z,17.67
2022-12-23T11:14:36.815Z,177.23
2022-12-23T11:17:21.630Z,18.30
2022-12-23T11:20:10.687Z,17.07
2022-12-23T11:22:50.949Z,14.97
2022-12-23T11:25:30.898Z,15.07
2022-12-23T11:28:04.941Z,17.33
2022-12-23T11:30:55.631Z,15.47
2022-12-23T11:33:32.890Z,18.53
2022-12-23T11:36:05.801Z,16.17
2022-12-23T11:38:37.826Z,15.87
2022-12-23T11:41:08.760Z,14.93
2022-12-23T11:43:42.094Z,39.80
2022-12-23T11:46:29.636Z,15.73
2022-12-23T11:49:19.529Z,16.20
2022-12-23T11:52:01.575Z,17.00
2022-12-23T11:54:32.303Z,18.87
2022-12-23T11:57:05.700Z,17.47
2022-12-23T11:59:39.627Z,15.37
2022-12-23T12:02:18.107Z,15.07
2022-12-23T12:04:58.700Z,15.77
2022-12-23T12:07:29.868Z,19.07
2022-12-23T12:10:00.925Z,15.93
2022-12-23T12:12:32.447Z,18.47
2022-12-23T12:15:02.738Z,21.47
2022-12-23T12:17:39.306Z,18.53
2022-12-23T12:20:16.879Z,22.30
2022-12-23T12:22:50.957Z,18.20
2022-12-23T12:25:23.458Z,18.00
2022-12-23T12:28:00.653Z,21.73
2022-12-23T12:30:36.833Z,21.43
2022-12-23T12:33:16.524Z,20.77
2022-12-23T12:35:53.833Z,22.33
2022-12-23T12:38:28.759Z,20.13
2022-12-23T12:41:01.622Z,20.40
2022-12-23T12:43:33.896Z,18.80
2022-12-23T12:46:16.128Z,20.33
2022-12-23T12:48:51.878Z,20.10
2022-12-23T12:51:33.019Z,17.07
2022-12-23T12:54:09.199Z,17.43
2022-12-23T12:56:44.328Z,17.73
2022-12-23T12:59:19.896Z,18.00
2022-12-23T13:01:57.368Z,15.07
2022-12-23T13:04:44.943Z,152.33
2022-12-23T13:07:25.583Z,15.60
2022-12-23T13:10:06.089Z,15.63
2022-12-23T13:12:52.926Z,12.43
2022-12-23T13:15:30.229Z,13.80
2022-12-23T13:18:17.009Z,13.20
2022-12-23T13:20:55.134Z,10.40
2022-12-23T13:23:43.626Z,10.53
2022-12-23T13:26:27.075Z,12.17
2022-12-23T13:29:11.085Z,12.27
2022-12-23T13:31:51.552Z,9.50
2022-12-23T13:34:35.012Z,9.90
2022-12-23T13:37:16.879Z,8.87
2022-12-23T13:43:52.126Z,8.80
2022-12-23T13:46:34.541Z,10.43
2022-12-23T13:49:13.184Z,8.10
2022-12-23T13:51:51.925Z,11.90
2022-12-23T13:54:29.621Z,9.27
2022-12-23T13:57:23.216Z,12.60
2022-12-23T14:00:06.185Z,10.50
2022-12-23T14:02:52.584Z,9.73
2022-12-23T14:05:41.846Z,9.70
2022-12-23T14:08:25.910Z,8.73
2022-12-23T14:11:02.503Z,9.93
2022-12-23T14:13:45.693Z,11.67
2022-12-23T14:16:40.035Z,10.50
2022-12-23T14:19:50.771Z,11.23
2022-12-23T14:22:48.022Z,7.77
2022-12-23T14:25:52.743Z,9.20
2022-12-23T14:28:39.939Z,8.47
2022-12-23T14:31:32.624Z,9.70
2022-12-23T14:34:09.398Z,12.43
2022-12-23T14:36:39.831Z,11.87
2022-12-23T14:39:36.791Z,12.67
2022-12-23T14:42:12.091Z,12.27
2022-12-23T14:44:52.954Z,12.70
2022-12-23T14:47:35.324Z,12.03
2022-12-23T14:50:36.231Z,13.03
2022-12-23T14:53:24.888Z,15.60
2022-12-23T14:56:15.054Z,20.13
2022-12-23T14:59:12.874Z,15.13
2022-12-23T15:01:51.653Z,16.33
2022-12-23T15:04:26.916Z,16.00
2022-12-23T15:07:01.612Z,18.20
2022-12-23T15:09:34.427Z,19.10
2022-12-23T15:12:14.638Z,19.90
2022-12-23T15:14:50.528Z,18.43
2022-12-23T15:17:28.905Z,21.27
2022-12-23T15:20:14.666Z,21.07
2022-12-23T15:22:46.883Z,16.57
2022-12-23T15:25:25.732Z,21.37
2022-12-23T15:28:01.768Z,19.33
2022-12-23T15:30:37.869Z,20.77
2022-12-23T15:33:43.287Z,18.03
2022-12-23T15:36:05.767Z,18.93
2022-12-23T15:38:40.853Z,22.23
2022-12-23T15:41:42.523Z,18.83
2022-12-23T15:44:27.062Z,20.83
2022-12-23T15:46:57.266Z,17.50
2022-12-23T15:49:30.384Z,17.67
2022-12-23T15:52:09.779Z,16.93
2022-12-23T15:54:48.166Z,20.73
2022-12-23T15:57:23.228Z,19.93
2022-12-23T15:59:54.069Z,20.10
2022-12-23T16:05:32.819Z,20.43
2022-12-23T16:08:14.050Z,22.13
2022-12-23T16:10:45.281Z,21.93
2022-12-23T16:13:19.910Z,22.20
2022-12-23T16:15:50.548Z,23.37
2022-12-23T16:18:25.581Z,21.80
2022-12-23T16:21:01.804Z,19.50
2022-12-23T16:23:32.907Z,20.97
2022-12-23T16:26:04.760Z,21.80
2022-12-23T16:28:40.746Z,18.10
2022-12-23T16:31:13.632Z,18.93
2022-12-23T16:33:46.640Z,20.10
2022-12-23T16:36:23.732Z,22.13
2022-12-23T16:38:55.764Z,20.30
2022-12-23T16:41:26.910Z,20.63
2022-12-23T16:43:57.182Z,24.00
2022-12-23T16:46:29.351Z,223.47
2022-12-23T16:49:04.802Z,71.07
2022-12-23T16:51:40.709Z,27.50
2022-12-23T16:54:17.130Z,19.73
2022-12-23T16:56:50.196Z,19.70
2022-12-23T16:59:22.587Z,17.73
2022-12-23T17:01:59.555Z,20.67
2022-12-23T17:04:33.411Z,17.23
2022-12-23T17:07:11.952Z,18.37
2022-12-23T17:09:42.197Z,17.67
2022-12-23T17:12:13.908Z,23.53
2022-12-23T17:14:43.933Z,19.87
2022-12-23T17:17:17.448Z,17.77
2022-12-23T17:19:47.631Z,17.90
2022-12-23T17:22:21.919Z,18.23
2022-12-23T17:24:52.142Z,20.73
2022-12-23T17:27:24.472Z,17.97
2022-12-23T17:29:54.464Z,19.50
2022-12-23T17:32:25.456Z,218.73
2022-12-23T17:34:56.946Z,43.03
2022-12-23T17:37:31.553Z,23.40
2022-12-23T17:40:01.551Z,22.23
2022-12-23T17:42:31.924Z,22.10
2022-12-23T17:45:03.158Z,20.83
2022-12-23T17:47:33.491Z,21.23
2022-12-23T17:50:03.502Z,22.20
2022-12-23T17:52:36.509Z,27.23
2022-12-23T17:55:06.799Z,23.20
2022-12-23T17:57:37.319Z,23.43
2022-12-23T18:00:08.358Z,27.27
2022-12-23T18:02:39.068Z,25.20
2022-12-23T18:05:22.857Z,25.10
2022-12-23T18:07:59.032Z,25.70
2022-12-23T18:10:31.659Z,27.70
2022-12-23T18:13:04.472Z,26.67
2022-12-23T18:15:37.597Z,27.13
2022-12-23T18:18:20.546Z,25.53
2022-12-23T18:20:59.246Z,25.20
2022-12-23T18:23:34.246Z,27.87
2022-12-23T18:26:04.447Z,34.30
2022-12-23T18:28:34.755Z,30.20
2022-12-23T18:31:07.589Z,28.20
2022-12-23T18:33:41.729Z,323.77
2022-12-23T18:36:21.726Z,51.23
2022-12-23T18:38:54.876Z,26.50
2022-12-23T18:41:26.241Z,31.10
2022-12-23T18:43:57.447Z,26.47
2022-12-23T18:46:27.459Z,32.60
2022-12-23T18:48:57.855Z,30.63
2022-12-23T18:51:27.828Z,36.53
2022-12-23T18:54:00.771Z,35.40
2022-12-23T18:56:30.741Z,32.47
2022-12-23T18:59:01.034Z,33.73
2022-12-23T19:01:31.165Z,34.30
2022-12-23T19:04:01.468Z,34.27
2022-12-23T19:06:31.452Z,32.97
2022-12-23T19:09:04.724Z,36.40
2022-12-23T19:11:34.885Z,40.07
2022-12-23T19:14:05.488Z,37.10
2022-12-23T19:16:35.836Z,38.23
2022-12-23T19:19:06.428Z,37.57
2022-12-23T19:21:36.502Z,39.00
2022-12-23T19:24:09.901Z,39.60
2022-12-23T19:26:39.888Z,41.23
2022-12-23T19:29:10.238Z,39.90
2022-12-23T19:31:40.289Z,40.23
2022-12-23T19:34:15.044Z,33.13
2022-12-23T19:36:46.213Z,35.67
2022-12-23T19:39:21.987Z,30.33
2022-12-23T19:41:52.018Z,112.63
2022-12-23T19:44:22.372Z,137.17
2022-12-23T19:46:53.586Z,42.10
2022-12-23T19:49:24.080Z,31.57
2022-12-23T19:51:54.095Z,29.30
2022-12-23T19:54:27.093Z,25.57
2022-12-23T19:56:57.216Z,33.33
2022-12-23T19:59:27.685Z,27.37
2022-12-23T20:01:57.602Z,30.50
2022-12-23T20:04:28.124Z,29.27
2022-12-23T20:06:58.161Z,30.17
2022-12-23T20:09:31.100Z,31.40
2022-12-23T20:12:01.175Z,33.07
2022-12-23T20:14:34.127Z,29.27
2022-12-23T20:17:04.481Z,29.47
2022-12-23T20:19:45.491Z,30.03
2022-12-23T20:22:16.474Z,115.80
2022-12-23T20:24:49.852Z,34.67
2022-12-23T20:27:25.973Z,30.03
2022-12-23T20:29:58.321Z,30.90
2022-12-23T20:32:28.288Z,33.87
2022-12-23T20:34:58.681Z,32.07
2022-12-23T20:37:28.830Z,38.00
2022-12-23T20:40:01.757Z,34.13
2022-12-23T20:42:31.768Z,32.70
2022-12-23T20:45:02.082Z,34.90
2022-12-23T20:47:32.033Z,33.77
2022-12-23T20:50:02.577Z,34.00
2022-12-23T20:52:32.579Z,34.73
2022-12-23T20:55:06.557Z,36.20
2022-12-23T20:57:36.530Z,34.50
2022-12-23T21:00:07.397Z,38.00
2022-12-23T21:02:37.508Z,33.67
2022-12-23T21:05:08.309Z,36.03
2022-12-23T21:07:38.379Z,33.43
2022-12-23T21:10:12.795Z,34.67
2022-12-23T21:12:42.796Z,34.77
2022-12-23T21:15:13.220Z,34.97
2022-12-23T21:17:43.523Z,34.50
2022-12-23T21:20:14.291Z,35.67
2022-12-23T21:22:53.392Z,36.63
2022-12-23T21:25:27.419Z,30.33
2022-12-23T21:27:57.977Z,34.27
2022-12-23T21:30:28.617Z,28.63
2022-12-23T21:33:00.557Z,29.20
2022-12-23T21:35:31.649Z,29.30
2022-12-23T21:38:02.333Z,27.30
2022-12-23T21:40:35.243Z,30.23
2022-12-23T21:43:08.673Z,27.67
2022-12-23T21:45:39.578Z,29.83
2022-12-23T21:48:10.073Z,29.77
2022-12-23T21:50:40.440Z,28.33
2022-12-23T21:53:10.405Z,24.53
2022-12-23T21:55:43.489Z,27.03
2022-12-23T21:58:13.485Z,25.50
2022-12-23T22:00:46.849Z,30.20
2022-12-23T22:03:17.029Z,26.83
2022-12-23T22:05:47.344Z,25.90
2022-12-23T22:08:17.378Z,23.97
2022-12-23T22:14:11.262Z,25.17
2022-12-23T22:16:41.654Z,23.73
2022-12-23T22:19:13.676Z,23.97
2022-12-23T22:21:44.068Z,23.63
2022-12-23T22:24:14.285Z,24.07
2022-12-23T22:26:47.188Z,24.70
2022-12-23T22:29:17.142Z,20.90
2022-12-23T22:31:49.036Z,24.20
2022-12-23T22:34:21.885Z,26.27
2022-12-23T22:36:52.961Z,25.10
2022-12-23T22:39:23.420Z,21.17
2022-12-23T22:41:56.279Z,22.60
2022-12-23T22:44:26.265Z,19.50
2022-12-23T22:46:56.726Z,23.23
2022-12-23T22:49:26.838Z,18.07
2022-12-23T22:51:57.257Z,21.93
2022-12-23T22:54:27.500Z,17.97
2022-12-23T22:57:00.436Z,19.63
2022-12-23T22:59:30.586Z,18.43
2022-12-23T23:02:01.136Z,19.40
2022-12-23T23:04:31.469Z,19.67
2022-12-23T23:07:02.361Z,20.07
2022-12-23T23:09:32.327Z,21.07
2022-12-23T23:12:05.251Z,18.13
2022-12-23T23:14:52.477Z,19.23
2022-12-23T23:17:30.454Z,19.53
2022-12-23T23:20:07.254Z,25.30
2022-12-23T23:22:37.759Z,19.90
2022-12-23T23:25:08.832Z,19.00
2022-12-23T23:27:41.819Z,19.90
2022-12-23T23:30:13.229Z,17.90
2022-12-23T23:32:43.851Z,18.27
2022-12-23T23:35:14.267Z,20.27
2022-12-23T23:37:44.857Z,21.23
2022-12-23T23:40:15.138Z,19.97
2022-12-23T23:42:48.058Z,17.63
2022-12-23T23:45:18.264Z,19.70
2022-12-23T23:47:48.837Z,21.83
2022-12-23T23:50:18.908Z,18.37
2022-12-23T23:52:54.401Z,17.87
2022-12-23T23:55:28.895Z,18.37
2022-12-23T23:58:05.186Z,18.50
